Time;durP1;ratioP1;P1;durP2;ratioP2;P2;SDS_P1;SDS_P2;PMS_P1;PMS_P2;Temp;Humidity;BMP_temperature;BMP_pressure;BME280_temperature;BME280_humidity;BME280_pressure;Samples;Min_cycle;Max_cycle;Signal;HPM_P1;HPM_P2
2022/10/03 00:02:35;;;;;;;3.30;1.33;;;;;;;-140.72;100.00;52883.97;5001233;28;20038;-68
2022/10/03 00:05:32;;;;;;;4.25;1.08;;;;;;;-140.72;100.00;52890.06;5002183;28;20280;-67
2022/10/03 00:08:13;;;;;;;2.58;0.68;;;;;;;-140.72;100.00;52886.00;4991770;28;20113;-67
2022/10/03 00:11:14;;;;;;;2.65;1.30;;;;;;;-140.72;100.00;52877.88;5002975;28;20029;-67
2022/10/03 00:13:57;;;;;;;1.92;0.50;;;;;;;-140.72;100.00;52847.44;5003446;28;20042;-67
2022/10/03 00:16:44;;;;;;;1.35;0.63;;;;;;;-140.72;100.00;52865.69;5002617;28;20018;-67
2022/10/03 00:19:24;;;;;;;2.15;0.77;;;;;;;-140.72;100.00;52871.78;4999763;28;20026;-68
2022/10/03 00:22:23;;;;;;;3.50;0.82;;;;;;;-140.72;100.00;52920.50;5002874;28;20096;-68
2022/10/03 00:25:16;;;;;;;3.83;0.77;;;;;;;-140.72;100.00;52900.19;5000226;28;20112;-68
2022/10/03 00:27:49;;;;;;;3.50;1.38;;;;;;;-140.72;100.00;52886.00;5003676;28;20025;-67
2022/10/03 00:30:18;;;;;;;15.43;1.15;;;;;;;-140.72;100.00;52894.13;4998091;28;20465;-67
2022/10/03 00:32:52;;;;;;;2.23;0.87;;;;;;;-140.72;100.00;52890.06;5001074;28;20028;-67
2022/10/03 00:35:20;;;;;;;2.53;0.90;;;;;;;-140.72;100.00;52922.53;5000430;28;20061;-66
2022/10/03 00:38:08;;;;;;;2.78;0.88;;;;;;;-140.72;100.00;52902.22;5002675;28;20055;-68
2022/10/03 00:41:03;;;;;;;8.05;1.02;;;;;;;-140.72;100.00;52914.41;4999134;28;20034;-67
2022/10/03 00:43:43;;;;;;;3.47;0.98;;;;;;;-140.72;100.00;52898.16;4995305;28;20642;-68
2022/10/03 00:46:28;;;;;;;2.05;0.88;;;;;;;-140.72;100.00;52928.63;5003676;28;20296;-68
2022/10/03 00:49:06;;;;;;;1.55;0.68;;;;;;;-140.72;100.00;52898.16;4997853;28;20079;-68
2022/10/03 00:52:11;;;;;;;4.72;1.33;;;;;;;-140.72;100.00;52898.16;5005481;28;20021;-67
2022/10/03 00:55:05;;;;;;;4.80;1.17;;;;;;;-140.72;100.00;52894.13;5003486;28;20018;-68
2022/10/03 00:57:58;;;;;;;1.75;0.40;;;;;;;-140.72;100.00;52924.56;4999558;28;20109;-68
2022/10/03 01:00:29;;;;;;;5.97;0.73;;;;;;;-140.72;100.00;52902.22;5000104;28;20369;-68
2022/10/03 01:03:13;;;;;;;5.13;0.70;;;;;;;-140.72;100.00;52906.28;4999807;28;20025;-68
2022/10/03 01:05:50;;;;;;;2.30;0.73;;;;;;;-140.72;100.00;52932.66;4999258;28;20026;-68
2022/10/03 01:08:27;;;;;;;0.90;0.70;;;;;;;-140.72;100.00;52918.47;5009016;28;20438;-69
2022/10/03 01:11:11;;;;;;;4.03;1.15;;;;;;;-140.72;100.00;52918.47;5007623;28;20405;-67
2022/10/03 01:14:03;;;;;;;3.67;1.20;;;;;;;-140.72;100.00;52910.34;5003420;28;20029;-68
2022/10/03 01:16:56;;;;;;;2.75;1.08;;;;;;;-140.72;100.00;52916.44;4998773;28;20045;-68
2022/10/03 01:19:27;;;;;;;4.18;1.08;;;;;;;-140.72;100.00;52910.34;5002661;28;20064;-67
2022/10/03 01:22:14;;;;;;;3.35;0.70;;;;;;;-140.72;100.00;52902.22;5006422;28;20045;-68
2022/10/03 01:25:09;;;;;;;2.28;0.75;;;;;;;-140.72;100.00;52918.47;5005467;28;20120;-68
2022/10/03 01:31:01;;;;;;;0.77;0.50;;;;;;;-140.72;100.00;52912.38;5002504;28;20076;-67
2022/10/03 01:33:42;;;;;;;2.95;0.60;;;;;;;-140.72;100.00;52922.53;5003157;28;20025;-67
2022/10/03 01:36:27;;;;;;;1.67;0.98;;;;;;;-140.72;100.00;52918.47;5002833;28;20113;-67
2022/10/03 01:39:01;;;;;;;2.40;0.68;;;;;;;-140.72;100.00;52924.56;4997220;28;20509;-67
2022/10/03 01:41:48;;;;;;;6.40;1.20;;;;;;;-140.72;100.00;52890.06;5003850;28;20029;-68
2022/10/03 01:44:29;;;;;;;3.25;1.42;;;;;;;-140.72;100.00;52908.31;5000554;28;20049;-68
2022/10/03 01:47:19;;;;;;;5.05;1.00;;;;;;;-140.72;100.00;52890.06;5001206;28;20029;-68
2022/10/03 01:49:47;;;;;;;;;;;;;;;-140.72;100.00;52865.69;5002421;28;20020;-68
2022/10/03 01:52:43;;;;;;;2.42;1.10;;;;;;;-140.72;100.00;52914.41;5004234;28;19916;-68
2022/10/03 01:55:54;;;;;;;1.70;0.50;;;;;;;-140.72;100.00;52906.28;5001167;28;20018;-67
2022/10/03 01:58:58;;;;;;;1.50;0.93;;;;;;;-140.72;100.00;52932.66;5001031;28;20022;-68
2022/10/03 02:01:54;;;;;;;2.47;0.65;;;;;;;-140.72;100.00;52892.09;4999564;28;20029;-68
2022/10/03 02:04:32;;;;;;;1.70;0.60;;;;;;;-140.72;100.00;52906.28;5004123;28;20037;-68
2022/10/03 02:07:19;;;;;;;3.05;0.60;;;;;;;-140.72;100.00;52877.88;5001924;28;20026;-69
2022/10/03 02:10:20;;;;;;;5.82;0.85;;;;;;;-140.72;100.00;52896.16;5004410;28;20029;-67
2022/10/03 02:12:57;;;;;;;4.53;1.00;;;;;;;-140.72;100.00;52910.34;4996692;28;20041;-67
2022/10/03 02:15:57;;;;;;;2.80;0.80;;;;;;;-140.72;100.00;52896.16;5006636;28;20084;-68
2022/10/03 02:18:47;;;;;;;3.60;0.75;;;;;;;-140.72;100.00;52883.97;5007248;28;20021;-67
2022/10/03 02:21:20;;;;;;;2.92;0.88;;;;;;;-140.72;100.00;52902.22;5006120;28;20080;-67
2022/10/03 02:23:48;;;;;;;3.70;0.55;;;;;;;-140.72;100.00;52900.19;5005389;28;20109;-67
2022/10/03 02:26:19;;;;;;;4.32;0.70;;;;;;;-140.72;100.00;52900.19;5003089;28;20389;-67
2022/10/03 02:29:03;;;;;;;1.77;0.60;;;;;;;-140.72;100.00;52928.63;5009674;28;20450;-68
2022/10/03 02:31:47;;;;;;;3.22;0.73;;;;;;;-140.72;100.00;52908.31;5003949;28;20057;-68
2022/10/03 02:34:25;;;;;;;2.42;0.80;;;;;;;-140.72;100.00;52867.72;5003597;28;20029;-68
2022/10/03 02:37:01;;;;;;;2.58;0.55;;;;;;;-140.72;100.00;52902.22;5006342;28;20048;-68
2022/10/03 02:40:16;;;;;;;1.13;0.55;;;;;;;-140.72;100.00;52904.25;5005108;28;20041;-68
2022/10/03 02:43:19;;;;;;;3.13;0.57;;;;;;;-140.72;100.00;52877.88;4948727;28;20056;-68
2022/10/03 02:46:19;;;;;;;2.85;0.85;;;;;;;-140.72;100.00;52916.44;5001957;28;20044;-68
2022/10/03 02:49:06;;;;;;;0.77;0.50;;;;;;;-140.72;100.00;52900.19;5001938;28;20121;-68
2022/10/03 02:51:47;;;;;;;1.38;0.73;;;;;;;-140.72;100.00;52920.50;5001627;28;20105;-68
2022/10/03 02:54:40;;;;;;;1.13;0.70;;;;;;;-140.72;100.00;52908.31;5000938;28;20025;-68
2022/10/03 02:57:54;;;;;;;4.88;1.20;;;;;;;-140.72;100.00;52888.03;4995441;28;20014;-68
2022/10/03 03:00:28;;;;;;;1.23;0.70;;;;;;;-140.72;100.00;52922.53;4997469;28;20030;-68
2022/10/03 03:03:15;;;;;;;1.40;0.52;;;;;;;-140.72;100.00;52936.72;5004264;28;20025;-68
2022/10/03 03:06:10;;;;;;;4.63;0.77;;;;;;;-140.72;100.00;52922.53;5005236;28;20035;-68
2022/10/03 03:08:56;;;;;;;0.95;0.50;;;;;;;-140.72;100.00;52946.88;5001502;28;20041;-68
2022/10/03 03:11:58;;;;;;;2.53;0.60;;;;;;;-140.72;100.00;52896.16;4968579;28;20113;-68
2022/10/03 03:14:41;;;;;;;3.03;0.70;;;;;;;-140.72;100.00;52906.28;4996195;28;20104;-67
2022/10/03 03:17:17;;;;;;;5.43;1.00;;;;;;;-140.72;100.00;52904.25;5009307;28;20021;-68
2022/10/03 03:20:16;;;;;;;2.88;1.15;;;;;;;-140.72;100.00;52948.91;5002454;28;20536;-68
2022/10/03 03:22:50;;;;;;;4.32;0.60;;;;;;;-140.72;100.00;52922.53;5004328;28;20019;-68
2022/10/03 03:25:44;;;;;;;2.67;0.45;;;;;;;-140.72;100.00;52912.38;4998054;28;20034;-68
2022/10/03 03:28:48;;;;;;;2.25;0.68;;;;;;;-140.72;100.00;52894.13;5002011;28;20045;-67
2022/10/03 03:31:20;;;;;;;1.27;0.40;;;;;;;-140.72;100.00;52946.88;5005072;28;20049;-68
2022/10/03 03:34:07;;;;;;;3.13;0.80;;;;;;;-140.72;100.00;52928.63;5005234;28;20014;-68
2022/10/03 03:36:58;;;;;;;2.67;0.45;;;;;;;-140.72;100.00;52902.22;5002373;28;20367;-68
2022/10/03 03:39:47;;;;;;;3.05;0.77;;;;;;;-140.72;100.00;52894.13;5000260;28;20105;-68
2022/10/03 03:42:38;;;;;;;2.85;0.85;;;;;;;-140.72;100.00;52952.97;5004253;28;20034;-68
2022/10/03 03:45:29;;;;;;;1.88;0.60;;;;;;;-140.72;100.00;52922.53;5002076;28;20165;-68
2022/10/03 03:48:25;;;;;;;3.72;0.57;;;;;;;-140.72;100.00;52930.66;5002768;28;20037;-68
2022/10/03 03:50:58;;;;;;;3.00;0.82;;;;;;;-140.72;100.00;52906.28;5008078;28;20104;-68
2022/10/03 03:54:04;;;;;;;1.42;0.90;;;;;;;-140.72;100.00;52938.75;5008811;28;20034;-68
2022/10/03 03:56:39;;;;;;;4.55;0.65;;;;;;;-140.72;100.00;52926.59;4972305;28;20069;-68
2022/10/03 03:59:13;;;;;;;5.85;0.70;;;;;;;-140.72;100.00;52955.00;5010374;28;20419;-68
2022/10/03 04:01:48;;;;;;;4.22;0.80;;;;;;;-140.72;100.00;52920.50;5005122;28;20023;-68
2022/10/03 04:04:31;;;;;;;1.92;0.50;;;;;;;-140.72;100.00;52896.16;5007329;28;20034;-68
2022/10/03 04:07:35;;;;;;;0.50;0.28;;;;;;;-140.72;100.00;52934.69;5001692;28;20034;-68
2022/10/03 04:10:19;;;;;;;1.10;0.70;;;;;;;-140.72;100.00;52920.50;4999083;28;20030;-68
2022/10/03 04:12:54;;;;;;;2.28;0.60;;;;;;;-140.72;100.00;52896.16;4997479;28;20046;-68
2022/10/03 04:15:47;;;;;;;5.65;0.80;;;;;;;-140.72;100.00;52881.94;5000638;28;20449;-68
2022/10/03 04:18:59;;;;;;;1.33;0.65;;;;;;;-140.72;100.00;52875.84;4998510;28;20061;-67
2022/10/03 04:21:39;;;;;;;3.53;0.80;;;;;;;-140.72;100.00;52883.97;4992923;28;20532;-67
2022/10/03 04:24:39;;;;;;;2.08;0.60;;;;;;;-140.72;100.00;52936.72;5006078;28;20020;-67
2022/10/03 04:27:20;;;;;;;2.92;0.90;;;;;;;-140.72;100.00;52871.78;5001827;28;20040;-66
2022/10/03 04:29:52;;;;;;;4.13;1.80;;;;;;;-140.72;100.00;52894.13;5005207;28;20085;-67
2022/10/03 04:32:48;;;;;;;2.28;1.10;;;;;;;-140.72;100.00;52902.22;4998890;28;20187;-67
2022/10/03 04:35:22;;;;;;;6.10;2.38;;;;;;;-140.72;100.00;52865.69;5004215;28;20180;-67
2022/10/03 04:38:11;;;;;;;4.70;1.50;;;;;;;-140.72;100.00;52883.97;5006345;28;20030;-67
2022/10/03 04:40:46;;;;;;;5.25;1.38;;;;;;;-140.72;100.00;52914.41;5001824;28;20446;-69
2022/10/03 04:43:33;;;;;;;2.33;1.38;;;;;;;-140.72;100.00;52855.56;5002009;28;20155;-68
2022/10/03 04:46:38;;;;;;;4.03;1.15;;;;;;;-140.72;100.00;52886.00;5003838;28;20033;-68
2022/10/03 04:49:31;;;;;;;3.63;1.23;;;;;;;-140.72;100.00;52912.38;5001432;28;20014;-67
2022/10/03 04:52:02;;;;;;;1.52;0.77;;;;;;;-140.72;100.00;52934.69;5003624;28;20129;-68
2022/10/03 04:54:58;;;;;;;2.78;1.25;;;;;;;-140.72;100.00;52861.66;5008608;28;20049;-68
2022/10/03 04:57:41;;;;;;;2.33;1.15;;;;;;;-140.72;100.00;52867.72;4999740;28;20010;-68
2022/10/03 05:00:20;;;;;;;2.58;1.50;;;;;;;-140.72;100.00;52873.81;4997014;28;20105;-68
2022/10/03 05:03:12;;;;;;;3.05;1.52;;;;;;;-140.72;100.00;52849.47;4996500;28;20046;-68
2022/10/03 05:06:19;;;;;;;2.92;1.35;;;;;;;-140.72;100.00;52865.69;4951222;28;20336;-68
2022/10/03 05:08:50;;;;;;;7.22;1.35;;;;;;;-140.72;100.00;52875.84;4981909;28;20076;-67
2022/10/03 05:11:43;;;;;;;1.23;0.68;;;;;;;-140.72;100.00;52855.56;4997007;28;20113;-67
2022/10/03 05:14:27;;;;;;;1.05;0.50;;;;;;;-140.72;100.00;52845.41;4995888;28;20033;-67
2022/10/03 05:17:25;;;;;;;2.60;1.23;;;;;;;-140.72;100.00;52869.75;5005306;28;20138;-68
2022/10/03 05:20:18;;;;;;;4.00;1.33;;;;;;;-140.72;100.00;52881.94;4998311;28;20083;-66
2022/10/03 05:23:13;;;;;;;3.05;0.93;;;;;;;-140.72;100.00;52879.91;4993902;28;20026;-67
2022/10/03 05:26:06;;;;;;;1.50;0.70;;;;;;;-140.72;100.00;52859.63;5003036;28;20122;-67
2022/10/03 05:28:40;;;;;;;2.28;0.73;;;;;;;-140.72;100.00;52835.25;5009313;28;20486;-67
2022/10/03 05:32:07;;;;;;;1.90;0.85;;;;;;;-140.72;100.00;52857.59;5003455;28;20028;-67
2022/10/03 05:34:43;;;;;;;2.13;0.80;;;;;;;-140.72;100.00;52906.28;4940858;28;20034;-67
2022/10/03 05:37:19;;;;;;;2.10;0.90;;;;;;;-140.72;100.00;52867.72;5001564;28;20038;-67
2022/10/03 05:39:59;;;;;;;2.00;0.80;;;;;;;-140.72;100.00;52896.16;4999037;28;20018;-66
2022/10/03 05:42:52;;;;;;;1.52;0.55;;;;;;;-140.72;100.00;52875.84;5001442;28;20024;-67
2022/10/03 05:45:59;;;;;;;3.17;0.57;;;;;;;-140.72;100.00;52847.44;5000981;28;20088;-68
2022/10/03 05:48:39;;;;;;;0.60;0.60;;;;;;;-140.72;100.00;52853.53;5001814;28;20113;-67
2022/10/03 05:51:23;;;;;;;0.65;0.43;;;;;;;-140.72;100.00;52847.44;5007054;28;20034;-68
2022/10/03 05:54:18;;;;;;;0.93;0.60;;;;;;;-140.72;100.00;52877.88;5005897;28;20031;-67
2022/10/03 05:57:08;;;;;;;2.20;0.93;;;;;;;-140.72;100.00;52861.66;5001137;28;20089;-68
2022/10/03 05:59:53;;;;;;;2.67;0.88;;;;;;;-140.72;100.00;52853.53;5004039;28;20053;-68
2022/10/03 06:02:45;;;;;;;3.38;0.85;;;;;;;-140.72;100.00;52863.66;5000967;28;20030;-68
2022/10/03 06:05:38;;;;;;;1.63;0.90;;;;;;;-140.72;100.00;52879.91;5005638;28;20026;-67
2022/10/03 06:08:33;;;;;;;1.15;0.52;;;;;;;-140.72;100.00;52892.09;5009095;28;20042;-67
2022/10/03 06:11:18;;;;;;;1.75;0.45;;;;;;;-140.72;100.00;52857.59;4937173;28;20383;-68
2022/10/03 06:14:08;;;;;;;3.60;0.85;;;;;;;-140.72;100.00;52869.75;5007877;28;20778;-68
2022/10/03 06:16:52;;;;;;;2.53;1.00;;;;;;;-140.72;100.00;52902.22;5002963;28;20026;-67
2022/10/03 06:19:40;;;;;;;4.55;0.95;;;;;;;-140.72;100.00;52896.16;5000116;28;20474;-68
2022/10/03 06:22:24;;;;;;;5.55;1.08;;;;;;;-140.72;100.00;52896.16;5001701;28;20303;-68
2022/10/03 06:24:58;;;;;;;2.97;1.25;;;;;;;-140.72;100.00;52871.78;5005012;28;20026;-68
2022/10/03 06:27:48;;;;;;;3.15;0.90;;;;;;;-140.72;100.00;52890.06;5004614;28;20018;-67
2022/10/03 06:30:35;;;;;;;2.63;1.17;;;;;;;-140.72;100.00;52871.78;5004503;28;20351;-67
2022/10/03 06:33:31;;;;;;;4.65;1.75;;;;;;;-140.72;100.00;52873.81;5000058;28;20099;-67
2022/10/03 06:36:32;;;;;;;4.15;1.70;;;;;;;-140.72;100.00;52843.38;4960202;28;1161359;-67
2022/10/03 06:39:29;;;;;;;4.07;1.38;;;;;;;-140.72;100.00;52906.28;5006390;28;20358;-67
2022/10/03 06:42:09;;;;;;;2.45;1.48;;;;;;;-140.72;100.00;52904.25;4998158;28;20018;-67
2022/10/03 06:45:08;;;;;;;2.05;1.35;;;;;;;-140.72;100.00;52859.63;5006401;28;20454;-67
2022/10/03 06:48:00;;;;;;;2.35;1.15;;;;;;;-140.72;100.00;52883.97;4990107;28;20034;-67
2022/10/03 06:51:12;;;;;;;5.95;1.58;;;;;;;-140.72;100.00;52881.94;5004490;28;20053;-67
2022/10/03 06:53:56;;;;;;;2.42;1.30;;;;;;;-140.72;100.00;52894.13;5005771;28;20095;-67
2022/10/03 06:56:54;;;;;;;5.10;1.95;;;;;;;-140.72;100.00;52863.66;4994303;28;20034;-66
2022/10/03 06:59:22;;;;;;;3.92;1.48;;;;;;;-140.72;100.00;52831.19;5010664;28;20030;-68
2022/10/03 07:02:09;;;;;;;3.88;1.23;;;;;;;-140.72;100.00;52843.38;5010386;28;20074;-67
2022/10/03 07:04:56;;;;;;;1.83;1.20;;;;;;;-140.72;100.00;52819.03;5005440;28;20419;-68
2022/10/03 07:07:51;;;;;;;2.63;1.50;;;;;;;-140.72;100.00;52812.94;5002796;28;20064;-67
2022/10/03 07:10:35;;;;;;;2.83;1.45;;;;;;;-140.72;100.00;52814.97;4982960;28;20508;-67
2022/10/03 07:13:18;;;;;;;1.63;1.02;;;;;;;-140.72;100.00;52794.69;5003358;28;20496;-67
2022/10/03 07:15:53;;;;;;;2.60;1.30;;;;;;;-140.72;100.00;52835.25;5006723;28;20113;-67
2022/10/03 07:18:28;;;;;;;2.55;1.85;;;;;;;-140.72;100.00;52812.94;5009316;28;20124;-67
2022/10/03 07:21:11;;;;;;;3.60;1.27;;;;;;;-140.72;100.00;52792.66;5009653;28;20138;-67
2022/10/03 07:24:01;;;;;;;2.60;1.48;;;;;;;-140.72;100.00;52800.75;4998106;28;20112;-67
2022/10/03 07:26:39;;;;;;;;;;;;;;;-140.72;100.00;52812.94;5010716;28;20041;-67
2022/10/03 07:29:30;;;;;;;4.95;1.70;;;;;;;-140.72;100.00;52798.72;4998956;28;19956;-67
2022/10/03 07:32:20;;;;;;;2.90;1.63;;;;;;;-140.72;100.00;52810.91;5004032;28;20038;-69
2022/10/03 07:35:04;;;;;;;;;;;;;;;-140.72;100.00;52806.84;5005264;28;20022;-67
2022/10/03 07:41:03;;;;;;;4.88;1.67;;;;;;;-140.72;100.00;52812.94;4988297;28;20098;-67
2022/10/03 07:44:18;;;;;;;7.30;2.17;;;;;;;-140.72;100.00;52794.69;4999867;28;20485;-67
2022/10/03 07:47:21;;;;;;;9.93;2.22;;;;;;;-140.72;100.00;52794.69;4971850;28;20176;-67
2022/10/03 07:49:52;;;;;;;4.93;2.33;;;;;;;-140.72;100.00;52806.84;5009215;28;20025;-68
2022/10/03 07:52:46;;;;;;;6.10;2.00;;;;;;;-140.72;100.00;52792.66;5009612;28;20069;-67
2022/10/03 07:55:32;;;;;;;3.78;1.98;;;;;;;-140.72;100.00;52790.63;5007230;28;20143;-67
2022/10/03 07:58:13;;;;;;;8.38;1.80;;;;;;;-140.72;100.00;52792.66;5009139;28;20022;-68
2022/10/03 08:01:06;;;;;;;17.35;2.42;;;;;;;-140.72;100.00;52733.78;5007416;28;20125;-68
2022/10/03 08:04:09;;;;;;;16.55;2.75;;;;;;;-140.72;100.00;52758.16;5002050;28;20485;-68
2022/10/03 08:06:55;;;;;;;10.20;2.28;;;;;;;-140.72;100.00;52725.69;5000877;28;20026;-68
2022/10/03 08:09:42;;;;;;;4.03;1.48;;;;;;;-140.72;100.00;52739.88;5009027;28;20053;-68
2022/10/03 08:12:24;;;;;;;6.13;1.90;;;;;;;-140.72;100.00;52743.94;5009644;28;20462;-68
2022/10/03 08:15:04;;;;;;;13.90;2.60;;;;;;;-140.72;100.00;52707.41;5008894;28;20490;-68
2022/10/03 08:17:49;;;;;;;6.50;2.57;;;;;;;-140.72;100.00;52735.81;5004346;28;20057;-68
2022/10/03 08:20:39;;;;;;;7.93;1.50;;;;;;;-140.72;100.00;52741.91;5012023;28;20029;-68
2022/10/03 08:23:23;;;;;;;3.75;1.65;;;;;;;-140.72;100.00;52748.00;4999760;28;20033;-68
2022/10/03 08:25:54;;;;;;;7.00;2.28;;;;;;;-140.72;100.00;52723.66;5008589;28;20257;-67
2022/10/03 08:28:33;;;;;;;16.90;2.13;;;;;;;-140.72;100.00;52731.75;4995370;28;20315;-67
2022/10/03 08:31:26;;;;;;;7.28;1.67;;;;;;;-140.72;100.00;52721.63;5010073;28;20028;-67
2022/10/03 08:34:28;;;;;;;3.35;1.40;;;;;;;-140.72;100.00;52756.13;5004739;28;20032;-67
2022/10/03 08:37:38;;;;;;;7.70;1.95;;;;;;;-140.72;100.00;52727.72;5005011;28;20466;-67
2022/10/03 08:40:41;;;;;;;18.65;3.10;;;;;;;-140.72;100.00;52723.66;4976090;28;20046;-67
2022/10/03 08:43:18;;;;;;;2.70;1.48;;;;;;;-140.72;100.00;52685.09;5006613;28;20382;-67
2022/10/03 08:46:00;;;;;;;4.82;1.73;;;;;;;-140.72;100.00;52760.19;5006270;28;20060;-66
2022/10/03 08:48:47;;;;;;;9.95;1.83;;;;;;;-140.72;100.00;52729.75;4997375;28;20437;-67
2022/10/03 08:51:42;;;;;;;6.82;1.20;;;;;;;-140.72;100.00;52733.78;5002911;28;20049;-68
2022/10/03 08:54:16;;;;;;;3.28;1.25;;;;;;;-140.72;100.00;52723.66;5007753;28;20049;-68
2022/10/03 08:57:19;;;;;;;4.47;1.42;;;;;;;-140.72;100.00;52723.66;5005988;28;20040;-67
2022/10/03 09:00:18;;;;;;;5.25;1.85;;;;;;;-140.72;100.00;52691.19;5003974;28;20029;-67
2022/10/03 09:02:55;;;;;;;8.90;2.38;;;;;;;-140.72;100.00;52691.19;4993421;28;20034;-67
2022/10/03 09:05:29;;;;;;;7.10;1.25;;;;;;;-140.72;100.00;52660.75;5006171;28;20033;-67
2022/10/03 09:08:39;;;;;;;6.18;0.98;;;;;;;-140.72;100.00;52676.97;5012255;28;20425;-67
2022/10/03 09:11:17;;;;;;;2.50;1.13;;;;;;;-140.72;100.00;52630.31;5012086;28;20065;-68
2022/10/03 09:14:07;;;;;;;3.55;1.08;;;;;;;-140.72;100.00;52699.31;5007042;28;20038;-67
2022/10/03 09:16:50;;;;;;;5.75;1.15;;;;;;;-140.72;100.00;52727.72;5009101;28;20110;-67
2022/10/03 09:19:39;;;;;;;2.83;0.70;;;;;;;-140.72;100.00;52662.78;5010091;28;20549;-67
2022/10/03 09:22:11;;;;;;;2.58;0.73;;;;;;;-140.72;100.00;52681.03;5012235;28;20036;-68
2022/10/03 09:24:57;;;;;;;6.75;1.05;;;;;;;-140.72;100.00;52650.59;4998654;28;20037;-67
2022/10/03 09:28:00;;;;;;;5.50;1.23;;;;;;;-140.72;100.00;52715.53;5012271;28;20113;-67
2022/10/03 09:30:55;;;;;;;6.50;0.98;;;;;;;-140.72;100.00;52658.72;5012089;28;20513;-67
2022/10/03 09:33:58;;;;;;;7.55;0.85;;;;;;;-140.72;100.00;52679.00;5004646;28;20077;-66
2022/10/03 09:36:45;;;;;;;1.67;0.55;;;;;;;-140.72;100.00;52620.16;5010747;28;20052;-67
2022/10/03 09:39:25;;;;;;;3.20;1.02;;;;;;;-140.72;100.00;52644.50;5010490;28;20113;-67
2022/10/03 09:41:59;;;;;;;4.32;1.40;;;;;;;-140.72;100.00;52691.19;5002482;28;20072;-68
2022/10/03 09:44:57;;;;;;;2.20;0.60;;;;;;;-140.72;100.00;52664.81;5009696;28;20033;-67
2022/10/03 09:47:44;;;;;;;3.50;0.80;;;;;;;-140.72;100.00;52691.19;4998145;28;20109;-68
2022/10/03 09:50:28;;;;;;;2.38;0.65;;;;;;;-140.72;100.00;52697.28;5012289;28;20481;-67
2022/10/03 09:53:23;;;;;;;4.25;0.90;;;;;;;-140.72;100.00;52674.94;5006077;28;20377;-67
2022/10/03 09:56:24;;;;;;;4.50;1.00;;;;;;;-140.72;100.00;52695.25;5010614;28;20026;-68
2022/10/03 09:59:24;;;;;;;4.63;0.93;;;;;;;-140.72;100.00;52679.00;5003837;28;20022;-67
2022/10/03 10:02:26;;;;;;;4.97;1.27;;;;;;;-140.72;100.00;52679.00;5007190;28;20365;-67
2022/10/03 10:05:14;;;;;;;8.25;0.95;;;;;;;-140.72;100.00;52713.50;5012150;28;20614;-67
2022/10/03 10:07:55;;;;;;;5.55;1.25;;;;;;;-140.72;100.00;52717.56;5003233;28;20032;-67
2022/10/03 10:10:45;;;;;;;2.35;0.40;;;;;;;-140.72;100.00;52711.47;5005608;28;20026;-67
2022/10/03 10:13:31;;;;;;;5.68;1.08;;;;;;;-140.72;100.00;52676.97;5008587;28;20034;-67
2022/10/03 10:16:31;;;;;;;4.43;0.47;;;;;;;-140.72;100.00;52679.00;4999760;28;20034;-67
2022/10/03 10:19:40;;;;;;;5.63;1.20;;;;;;;-140.72;100.00;52687.13;5009236;28;20030;-67
2022/10/03 10:22:43;;;;;;;1.02;0.50;;;;;;;-140.72;100.00;52658.72;4981087;28;20065;-67
2022/10/03 10:25:52;;;;;;;2.67;0.93;;;;;;;-140.72;100.00;52703.34;5005482;28;20026;-67
2022/10/03 10:28:50;;;;;;;10.45;1.20;;;;;;;-140.72;100.00;52679.00;5003308;28;20045;-68
2022/10/03 10:31:33;;;;;;;5.35;1.20;;;;;;;-140.72;100.00;52664.81;5004566;28;20402;-68
2022/10/03 10:34:44;;;;;;;4.45;0.82;;;;;;;-140.72;100.00;52668.84;4997640;28;20025;-68
2022/10/03 10:37:35;;;;;;;4.45;0.90;;;;;;;-140.72;100.00;52681.03;5009137;28;20141;-67
2022/10/03 10:40:27;;;;;;;1.95;0.68;;;;;;;-140.72;100.00;52656.69;4997211;28;20272;-68
2022/10/03 10:43:26;;;;;;;2.35;0.80;;;;;;;-140.72;100.00;52709.44;4995527;28;20473;-68
2022/10/03 10:46:04;;;;;;;4.63;0.82;;;;;;;-140.72;100.00;52636.38;5010404;28;20053;-68
2022/10/03 10:48:48;;;;;;;4.60;1.15;;;;;;;-140.72;100.00;52654.66;5004954;28;20076;-67
2022/10/03 10:51:34;;;;;;;0.80;0.52;;;;;;;-140.72;100.00;52670.88;5010383;28;20071;-67
2022/10/03 10:54:18;;;;;;;4.55;1.13;;;;;;;-140.72;100.00;52699.31;5008580;28;20026;-67
2022/10/03 10:57:17;;;;;;;5.25;0.98;;;;;;;-140.72;100.00;52699.31;4999253;28;20371;-67
2022/10/03 11:00:02;;;;;;;3.15;1.38;;;;;;;-140.72;100.00;52699.31;5008600;28;20026;-67
2022/10/03 11:02:53;;;;;;;3.50;0.93;;;;;;;-140.72;100.00;52640.44;5008753;28;20094;-67
2022/10/03 11:05:56;;;;;;;5.07;0.73;;;;;;;-140.72;100.00;52679.00;5008430;28;20030;-67
2022/10/03 11:09:06;;;;;;;5.75;0.85;;;;;;;-140.72;100.00;52683.06;5007694;28;20112;-66
2022/10/03 11:11:50;;;;;;;;;;;;;;;-140.72;100.00;52681.03;4998371;28;20141;-67
2022/10/03 11:14:51;;;;;;;4.03;0.68;;;;;;;-140.72;100.00;52703.34;5004820;28;19912;-67
2022/10/03 11:17:28;;;;;;;3.38;0.73;;;;;;;-140.72;100.00;52719.59;5005445;28;20029;-68
2022/10/03 11:20:12;;;;;;;1.35;0.75;;;;;;;-140.72;100.00;52723.66;5005871;28;20304;-67
2022/10/03 11:23:05;;;;;;;2.20;0.98;;;;;;;-140.72;100.00;52733.78;5001137;28;20108;-67
2022/10/03 11:25:50;;;;;;;8.15;0.80;;;;;;;-140.72;100.00;52725.69;5007228;28;20397;-68
2022/10/03 11:28:54;;;;;;;3.45;1.00;;;;;;;-140.72;100.00;52768.28;4996952;28;20189;-67
2022/10/03 11:31:41;;;;;;;1.63;0.65;;;;;;;-140.72;100.00;52731.75;5005199;28;20309;-68
2022/10/03 11:34:21;;;;;;;4.03;1.15;;;;;;;-140.72;100.00;52703.34;5010267;28;20026;-67
2022/10/03 11:37:08;;;;;;;2.63;1.13;;;;;;;-140.72;100.00;52719.59;5006883;28;20286;-67
2022/10/03 11:40:30;;;;;;;3.88;1.58;;;;;;;-140.72;100.00;52683.06;4997021;28;20365;-67
2022/10/03 11:43:14;;;;;;;4.03;0.95;;;;;;;-140.72;100.00;52735.81;4928393;29;20031;-67
2022/10/03 11:45:53;;;;;;;4.35;1.58;;;;;;;-140.72;100.00;52711.47;4922444;29;20040;-67
2022/10/03 11:48:32;;;;;;;3.67;1.65;;;;;;;-140.72;100.00;52727.72;4988087;28;20037;-67
2022/10/03 11:51:41;;;;;;;6.00;1.00;;;;;;;-140.72;100.00;52672.91;5005810;28;20048;-67
2022/10/03 11:54:12;;;;;;;8.93;1.02;;;;;;;-140.72;100.00;52687.13;4947306;28;20427;-67
2022/10/03 11:56:46;;;;;;;2.88;0.50;;;;;;;-140.72;100.00;52711.47;5006844;28;20033;-67
2022/10/03 11:59:26;;;;;;;4.35;1.25;;;;;;;-140.72;100.00;52679.00;5003276;28;20033;-67
2022/10/03 12:02:34;;;;;;;5.75;1.40;;;;;;;-140.72;100.00;52715.53;5005353;28;20482;-67
2022/10/03 12:05:11;;;;;;;9.15;1.88;;;;;;;-140.72;100.00;52713.50;5006131;28;20121;-67
2022/10/03 12:11:20;;;;;;;13.23;2.55;;;;;;;-140.72;100.00;52687.13;5004189;28;20049;-67
2022/10/03 12:14:04;;;;;;;8.18;1.55;;;;;;;-140.72;100.00;52711.47;5002587;28;20106;-67
2022/10/03 12:16:56;;;;;;;5.30;1.10;;;;;;;-140.72;100.00;52727.72;5004124;28;20050;-67
2022/10/03 12:19:36;;;;;;;2.42;0.65;;;;;;;-140.72;100.00;52674.94;5002253;28;20045;-67
2022/10/03 12:22:23;;;;;;;1.48;0.70;;;;;;;-140.72;100.00;52709.44;5004208;28;20167;-68
2022/10/03 12:24:49;;;;;;;1.23;0.50;;;;;;;-140.72;100.00;52703.34;5004366;28;20025;-68
2022/10/03 12:27:31;;;;;;;1.90;0.73;;;;;;;-140.72;100.00;52697.28;5004951;28;20061;-68
2022/10/03 12:30:08;;;;;;;6.93;1.85;;;;;;;-140.72;100.00;52685.09;5006559;28;20582;-68
2022/10/03 12:32:40;;;;;;;2.47;0.40;;;;;;;-140.72;100.00;52709.44;5004749;28;20088;-67
2022/10/03 12:35:21;;;;;;;3.00;1.25;;;;;;;-140.72;100.00;52695.25;5002309;28;20125;-67
2022/10/03 12:37:55;;;;;;;2.13;0.82;;;;;;;-140.72;100.00;52705.38;5000281;28;20030;-68
2022/10/03 12:40:53;;;;;;;5.00;1.00;;;;;;;-140.72;100.00;52695.25;5005559;28;20209;-67
2022/10/03 12:43:38;;;;;;;3.88;1.08;;;;;;;-140.72;100.00;52731.75;5002894;28;20030;-67
2022/10/03 12:46:15;;;;;;;5.68;1.20;;;;;;;-140.72;100.00;52719.59;5001990;28;20018;-67
2022/10/03 12:48:54;;;;;;;3.90;1.33;;;;;;;-140.72;100.00;52729.75;5000244;28;20025;-67
2022/10/03 12:51:40;;;;;;;1.55;0.95;;;;;;;-140.72;100.00;52768.28;5005221;28;20022;-67
2022/10/03 12:54:21;;;;;;;1.77;0.75;;;;;;;-140.72;100.00;52707.41;4989073;28;20057;-67